sensor_id;sensor_type;location;lat;lon;timestamp;temperature;humidity
67529;DHT22;54366;51.980;5.856;2023-01-01T00:01:13;16.20;61.60
67529;DHT22;54366;51.980;5.856;2023-01-01T00:03:40;16.10;61.70
67529;DHT22;54366;51.980;5.856;2023-01-01T00:06:07;16.10;61.50
67529;DHT22;54366;51.980;5.856;2023-01-01T00:08:34;16.10;61.20
67529;DHT22;54366;51.980;5.856;2023-01-01T00:11:02;16.10;61.20
67529;DHT22;54366;51.980;5.856;2023-01-01T00:13:28;16.10;61.40
67529;DHT22;54366;51.980;5.856;2023-01-01T00:15:55;16.10;61.00
67529;DHT22;54366;51.980;5.856;2023-01-01T00:18:21;16.20;61.10
67529;DHT22;54366;51.980;5.856;2023-01-01T00:20:47;16.20;61.10
67529;DHT22;54366;51.980;5.856;2023-01-01T00:23:14;16.20;61.00
67529;DHT22;54366;51.980;5.856;2023-01-01T00:25:40;16.20;61.60
67529;DHT22;54366;51.980;5.856;2023-01-01T00:28:06;16.20;61.00
67529;DHT22;54366;51.980;5.856;2023-01-01T00:30:38;16.20;60.90
67529;DHT22;54366;51.980;5.856;2023-01-01T00:33:04;16.20;60.60
67529;DHT22;54366;51.980;5.856;2023-01-01T00:35:32;16.30;60.90
67529;DHT22;54366;51.980;5.856;2023-01-01T00:37:58;16.30;61.10
67529;DHT22;54366;51.980;5.856;2023-01-01T00:40:25;16.20;61.20
67529;DHT22;54366;51.980;5.856;2023-01-01T00:42:51;16.20;60.80
67529;DHT22;54366;51.980;5.856;2023-01-01T00:45:17;16.20;61.00
67529;DHT22;54366;51.980;5.856;2023-01-01T00:47:44;16.20;61.20
67529;DHT22;54366;51.980;5.856;2023-01-01T00:50:10;16.20;61.50
67529;DHT22;54366;51.980;5.856;2023-01-01T00:52:43;16.20;61.50
67529;DHT22;54366;51.980;5.856;2023-01-01T00:55:10;16.20;61.80
67529;DHT22;54366;51.980;5.856;2023-01-01T00:57:36;16.20;62.10
67529;DHT22;54366;51.980;5.856;2023-01-01T01:00:04;16.20;61.60
67529;DHT22;54366;51.980;5.856;2023-01-01T01:02:30;16.20;61.90
67529;DHT22;54366;51.980;5.856;2023-01-01T01:04:57;16.20;61.90
67529;DHT22;54366;51.980;5.856;2023-01-01T01:07:23;16.20;62.60
67529;DHT22;54366;51.980;5.856;2023-01-01T01:09:49;16.10;62.90
67529;DHT22;54366;51.980;5.856;2023-01-01T01:12:16;16.10;62.90
67529;DHT22;54366;51.980;5.856;2023-01-01T01:14:42;16.10;63.00
67529;DHT22;54366;51.980;5.856;2023-01-01T01:17:08;16.00;63.30
67529;DHT22;54366;51.980;5.856;2023-01-01T01:19:35;16.00;63.00
67529;DHT22;54366;51.980;5.856;2023-01-01T01:22:01;16.00;62.70
67529;DHT22;54366;51.980;5.856;2023-01-01T01:24:28;16.00;62.70
67529;DHT22;54366;51.980;5.856;2023-01-01T01:26:54;16.00;62.00
67529;DHT22;54366;51.980;5.856;2023-01-01T01:29:21;16.00;62.60
67529;DHT22;54366;51.980;5.856;2023-01-01T01:31:47;16.00;62.00
67529;DHT22;54366;51.980;5.856;2023-01-01T01:34:13;16.00;62.20
67529;DHT22;54366;51.980;5.856;2023-01-01T01:36:42;16.00;62.00
67529;DHT22;54366;51.980;5.856;2023-01-01T01:39:10;16.00;62.40
67529;DHT22;54366;51.980;5.856;2023-01-01T01:41:37;16.00;62.60
67529;DHT22;54366;51.980;5.856;2023-01-01T01:44:45;15.90;62.40
67529;DHT22;54366;51.980;5.856;2023-01-01T01:46:52;15.90;62.30
67529;DHT22;54366;51.980;5.856;2023-01-01T01:49:27;16.00;62.30
67529;DHT22;54366;51.980;5.856;2023-01-01T01:51:54;15.90;62.20
67529;DHT22;54366;51.980;5.856;2023-01-01T01:54:23;15.90;61.90
67529;DHT22;54366;51.980;5.856;2023-01-01T01:56:57;15.90;61.90
67529;DHT22;54366;51.980;5.856;2023-01-01T01:59:28;15.80;62.20
67529;DHT22;54366;51.980;5.856;2023-01-01T02:01:55;15.90;61.70
67529;DHT22;54366;51.980;5.856;2023-01-01T02:04:22;15.90;61.70
67529;DHT22;54366;51.980;5.856;2023-01-01T02:06:49;15.80;62.40
67529;DHT22;54366;51.980;5.856;2023-01-01T02:09:16;15.80;62.70
67529;DHT22;54366;51.980;5.856;2023-01-01T02:11:43;15.80;62.30
67529;DHT22;54366;51.980;5.856;2023-01-01T02:14:09;15.80;62.10
67529;DHT22;54366;51.980;5.856;2023-01-01T02:16:43;15.80;61.90
67529;DHT22;54366;51.980;5.856;2023-01-01T02:19:28;15.80;61.90
67529;DHT22;54366;51.980;5.856;2023-01-01T02:22:26;15.80;62.30
67529;DHT22;54366;51.980;5.856;2023-01-01T02:25:16;15.80;62.20
67529;DHT22;54366;51.980;5.856;2023-01-01T02:28:47;15.80;62.20
67529;DHT22;54366;51.980;5.856;2023-01-01T02:30:46;15.70;61.70
67529;DHT22;54366;51.980;5.856;2023-01-01T02:33:20;15.70;62.40
67529;DHT22;54366;51.980;5.856;2023-01-01T02:35:52;15.70;62.00
67529;DHT22;54366;51.980;5.856;2023-01-01T02:41:12;15.70;61.70
67529;DHT22;54366;51.980;5.856;2023-01-01T02:43:41;15.70;61.60
67529;DHT22;54366;51.980;5.856;2023-01-01T02:46:08;15.60;61.10
67529;DHT22;54366;51.980;5.856;2023-01-01T02:48:56;15.70;61.10
67529;DHT22;54366;51.980;5.856;2023-01-01T02:52:06;15.70;61.30
67529;DHT22;54366;51.980;5.856;2023-01-01T02:55:07;15.70;60.80
67529;DHT22;54366;51.980;5.856;2023-01-01T02:57:42;15.70;60.40
67529;DHT22;54366;51.980;5.856;2023-01-01T03:00:13;15.70;60.50
67529;DHT22;54366;51.980;5.856;2023-01-01T03:03:20;15.70;60.60
67529;DHT22;54366;51.980;5.856;2023-01-01T03:06:21;15.70;59.80
67529;DHT22;54366;51.980;5.856;2023-01-01T03:09:22;15.70;60.30
67529;DHT22;54366;51.980;5.856;2023-01-01T03:12:05;15.70;60.00
67529;DHT22;54366;51.980;5.856;2023-01-01T03:14:57;15.70;60.10
67529;DHT22;54366;51.980;5.856;2023-01-01T03:17:35;15.70;60.40
67529;DHT22;54366;51.980;5.856;2023-01-01T03:20:23;15.70;60.50
67529;DHT22;54366;51.980;5.856;2023-01-01T03:22:52;15.70;60.20
67529;DHT22;54366;51.980;5.856;2023-01-01T03:25:22;15.70;60.90
67529;DHT22;54366;51.980;5.856;2023-01-01T03:27:57;15.60;60.30
67529;DHT22;54366;51.980;5.856;2023-01-01T03:30:25;15.60;60.80
67529;DHT22;54366;51.980;5.856;2023-01-01T03:33:04;15.60;60.10
67529;DHT22;54366;51.980;5.856;2023-01-01T03:35:45;15.70;60.20
67529;DHT22;54366;51.980;5.856;2023-01-01T03:38:30;15.60;60.00
67529;DHT22;54366;51.980;5.856;2023-01-01T03:41:10;15.60;60.00
67529;DHT22;54366;51.980;5.856;2023-01-01T03:43:50;15.60;60.10
67529;DHT22;54366;51.980;5.856;2023-01-01T03:46:23;15.60;60.10
67529;DHT22;54366;51.980;5.856;2023-01-01T03:48:51;15.60;60.40
67529;DHT22;54366;51.980;5.856;2023-01-01T03:51:58;15.60;60.30
67529;DHT22;54366;51.980;5.856;2023-01-01T03:57:57;15.60;60.70
67529;DHT22;54366;51.980;5.856;2023-01-01T04:00:34;15.50;60.70
67529;DHT22;54366;51.980;5.856;2023-01-01T04:03:15;15.50;60.70
67529;DHT22;54366;51.980;5.856;2023-01-01T04:05:44;15.50;60.40
67529;DHT22;54366;51.980;5.856;2023-01-01T04:08:11;15.50;60.40
67529;DHT22;54366;51.980;5.856;2023-01-01T04:10:43;15.50;60.50
67529;DHT22;54366;51.980;5.856;2023-01-01T04:13:11;15.50;60.70
67529;DHT22;54366;51.980;5.856;2023-01-01T04:15:37;15.50;60.80
67529;DHT22;54366;51.980;5.856;2023-01-01T04:18:03;15.50;60.50
67529;DHT22;54366;51.980;5.856;2023-01-01T04:20:30;15.40;60.60
67529;DHT22;54366;51.980;5.856;2023-01-01T04:22:58;15.40;60.80
67529;DHT22;54366;51.980;5.856;2023-01-01T04:25:25;15.40;60.70
67529;DHT22;54366;51.980;5.856;2023-01-01T04:27:51;15.40;60.90
67529;DHT22;54366;51.980;5.856;2023-01-01T04:30:18;15.40;60.50
67529;DHT22;54366;51.980;5.856;2023-01-01T04:32:44;15.40;60.70
67529;DHT22;54366;51.980;5.856;2023-01-01T04:35:12;15.40;60.70
67529;DHT22;54366;51.980;5.856;2023-01-01T04:37:43;15.40;60.80
67529;DHT22;54366;51.980;5.856;2023-01-01T04:40:12;15.50;60.80
67529;DHT22;54366;51.980;5.856;2023-01-01T04:42:39;15.50;61.10
67529;DHT22;54366;51.980;5.856;2023-01-01T04:45:06;15.50;61.20
67529;DHT22;54366;51.980;5.856;2023-01-01T04:47:32;15.50;61.40
67529;DHT22;54366;51.980;5.856;2023-01-01T04:49:58;15.50;61.50
67529;DHT22;54366;51.980;5.856;2023-01-01T04:52:25;15.50;61.80
67529;DHT22;54366;51.980;5.856;2023-01-01T04:54:57;15.50;61.60
67529;DHT22;54366;51.980;5.856;2023-01-01T04:57:23;15.40;61.30
67529;DHT22;54366;51.980;5.856;2023-01-01T04:59:50;15.50;61.70
67529;DHT22;54366;51.980;5.856;2023-01-01T05:02:16;15.50;61.80
67529;DHT22;54366;51.980;5.856;2023-01-01T05:04:43;15.50;61.90
67529;DHT22;54366;51.980;5.856;2023-01-01T05:07:10;15.40;62.00
67529;DHT22;54366;51.980;5.856;2023-01-01T05:09:36;15.40;61.80
67529;DHT22;54366;51.980;5.856;2023-01-01T05:12:03;15.50;62.10
67529;DHT22;54366;51.980;5.856;2023-01-01T05:14:29;15.40;62.10
67529;DHT22;54366;51.980;5.856;2023-01-01T05:16:55;15.40;62.30
67529;DHT22;54366;51.980;5.856;2023-01-01T05:19:21;15.50;62.40
67529;DHT22;54366;51.980;5.856;2023-01-01T05:21:48;15.40;62.50
67529;DHT22;54366;51.980;5.856;2023-01-01T05:24:14;15.40;62.70
67529;DHT22;54366;51.980;5.856;2023-01-01T05:26:43;15.40;62.80
67529;DHT22;54366;51.980;5.856;2023-01-01T05:29:09;15.40;62.70
67529;DHT22;54366;51.980;5.856;2023-01-01T05:31:36;15.40;62.90
67529;DHT22;54366;51.980;5.856;2023-01-01T05:34:03;15.40;63.00
67529;DHT22;54366;51.980;5.856;2023-01-01T05:36:33;15.40;63.20
67529;DHT22;54366;51.980;5.856;2023-01-01T05:39:00;15.30;63.30
67529;DHT22;54366;51.980;5.856;2023-01-01T05:41:26;15.30;63.40
67529;DHT22;54366;51.980;5.856;2023-01-01T05:43:53;15.30;63.60
67529;DHT22;54366;51.980;5.856;2023-01-01T05:46:22;15.30;63.50
67529;DHT22;54366;51.980;5.856;2023-01-01T05:48:49;15.20;60.90
67529;DHT22;54366;51.980;5.856;2023-01-01T05:51:27;15.20;61.00
67529;DHT22;54366;51.980;5.856;2023-01-01T05:53:54;15.20;60.50
67529;DHT22;54366;51.980;5.856;2023-01-01T05:56:21;15.20;61.20
67529;DHT22;54366;51.980;5.856;2023-01-01T05:58:48;15.20;61.40
67529;DHT22;54366;51.980;5.856;2023-01-01T06:01:25;15.20;61.60
67529;DHT22;54366;51.980;5.856;2023-01-01T06:03:53;15.10;62.30
67529;DHT22;54366;51.980;5.856;2023-01-01T06:06:22;15.10;62.90
67529;DHT22;54366;51.980;5.856;2023-01-01T06:08:55;15.10;63.20
67529;DHT22;54366;51.980;5.856;2023-01-01T06:11:21;15.10;62.30
67529;DHT22;54366;51.980;5.856;2023-01-01T06:13:51;15.00;62.00
67529;DHT22;54366;51.980;5.856;2023-01-01T06:16:18;15.00;61.60
67529;DHT22;54366;51.980;5.856;2023-01-01T06:18:44;15.00;61.70
67529;DHT22;54366;51.980;5.856;2023-01-01T06:21:16;15.00;61.80
67529;DHT22;54366;51.980;5.856;2023-01-01T06:23:42;15.00;61.20
67529;DHT22;54366;51.980;5.856;2023-01-01T06:26:11;15.00;60.90
67529;DHT22;54366;51.980;5.856;2023-01-01T06:28:38;14.90;61.10
67529;DHT22;54366;51.980;5.856;2023-01-01T06:31:06;14.90;61.40
67529;DHT22;54366;51.980;5.856;2023-01-01T06:33:33;14.90;61.90
67529;DHT22;54366;51.980;5.856;2023-01-01T06:36:05;14.90;62.30
67529;DHT22;54366;51.980;5.856;2023-01-01T06:38:32;14.80;62.50
67529;DHT22;54366;51.980;5.856;2023-01-01T06:41:01;14.80;63.00
67529;DHT22;54366;51.980;5.856;2023-01-01T06:43:29;14.80;63.20
67529;DHT22;54366;51.980;5.856;2023-01-01T06:46:23;14.80;63.50
67529;DHT22;54366;51.980;5.856;2023-01-01T06:48:53;14.80;63.70
67529;DHT22;54366;51.980;5.856;2023-01-01T06:51:25;14.80;63.50
67529;DHT22;54366;51.980;5.856;2023-01-01T06:53:52;14.70;63.60
67529;DHT22;54366;51.980;5.856;2023-01-01T06:56:19;14.70;63.80
67529;DHT22;54366;51.980;5.856;2023-01-01T06:58:46;14.70;63.90
67529;DHT22;54366;51.980;5.856;2023-01-01T07:03:48;14.60;64.40
67529;DHT22;54366;51.980;5.856;2023-01-01T07:06:15;14.60;64.20
67529;DHT22;54366;51.980;5.856;2023-01-01T07:08:41;14.60;63.30
67529;DHT22;54366;51.980;5.856;2023-01-01T07:11:07;14.60;63.40
67529;DHT22;54366;51.980;5.856;2023-01-01T07:13:34;14.50;63.00
67529;DHT22;54366;51.980;5.856;2023-01-01T07:16:01;14.50;63.00
67529;DHT22;54366;51.980;5.856;2023-01-01T07:18:28;14.40;62.70
67529;DHT22;54366;51.980;5.856;2023-01-01T07:20:59;14.40;62.90
67529;DHT22;54366;51.980;5.856;2023-01-01T07:23:27;14.30;63.30
67529;DHT22;54366;51.980;5.856;2023-01-01T07:25:54;14.30;63.70
67529;DHT22;54366;51.980;5.856;2023-01-01T07:28:21;14.20;64.00
67529;DHT22;54366;51.980;5.856;2023-01-01T07:30:47;14.10;64.30
67529;DHT22;54366;51.980;5.856;2023-01-01T07:33:16;14.10;64.70
67529;DHT22;54366;51.980;5.856;2023-01-01T07:35:43;14.00;65.00
67529;DHT22;54366;51.980;5.856;2023-01-01T07:38:10;14.00;65.70
67529;DHT22;54366;51.980;5.856;2023-01-01T07:40:37;13.90;66.00
67529;DHT22;54366;51.980;5.856;2023-01-01T07:43:03;13.90;66.40
67529;DHT22;54366;51.980;5.856;2023-01-01T07:45:30;13.80;66.40
67529;DHT22;54366;51.980;5.856;2023-01-01T07:47:58;13.80;67.10
67529;DHT22;54366;51.980;5.856;2023-01-01T07:50:27;13.70;67.00
67529;DHT22;54366;51.980;5.856;2023-01-01T07:52:54;13.60;67.40
67529;DHT22;54366;51.980;5.856;2023-01-01T07:55:21;13.60;67.30
67529;DHT22;54366;51.980;5.856;2023-01-01T07:57:48;13.50;67.40
67529;DHT22;54366;51.980;5.856;2023-01-01T08:00:17;13.50;67.60
67529;DHT22;54366;51.980;5.856;2023-01-01T08:02:44;13.50;67.70
67529;DHT22;54366;51.980;5.856;2023-01-01T08:05:11;13.40;67.90
67529;DHT22;54366;51.980;5.856;2023-01-01T08:07:37;13.40;68.00
67529;DHT22;54366;51.980;5.856;2023-01-01T08:10:05;13.40;68.10
67529;DHT22;54366;51.980;5.856;2023-01-01T08:12:32;13.40;68.10
67529;DHT22;54366;51.980;5.856;2023-01-01T08:14:59;13.40;68.00
67529;DHT22;54366;51.980;5.856;2023-01-01T08:17:25;13.30;68.20
67529;DHT22;54366;51.980;5.856;2023-01-01T08:19:51;13.40;68.40
67529;DHT22;54366;51.980;5.856;2023-01-01T08:22:18;13.30;68.30
67529;DHT22;54366;51.980;5.856;2023-01-01T08:24:44;13.30;68.40
67529;DHT22;54366;51.980;5.856;2023-01-01T08:27:15;13.30;68.20
67529;DHT22;54366;51.980;5.856;2023-01-01T08:29:42;13.30;68.40
67529;DHT22;54366;51.980;5.856;2023-01-01T08:32:13;13.30;68.50
67529;DHT22;54366;51.980;5.856;2023-01-01T08:34:39;13.30;68.50
67529;DHT22;54366;51.980;5.856;2023-01-01T08:37:08;13.30;68.40
67529;DHT22;54366;51.980;5.856;2023-01-01T08:39:36;13.30;68.60
67529;DHT22;54366;51.980;5.856;2023-01-01T08:42:02;13.30;68.30
67529;DHT22;54366;51.980;5.856;2023-01-01T08:44:29;13.30;68.30
67529;DHT22;54366;51.980;5.856;2023-01-01T08:46:55;13.30;68.40
67529;DHT22;54366;51.980;5.856;2023-01-01T08:49:21;13.30;68.50
67529;DHT22;54366;51.980;5.856;2023-01-01T08:51:48;13.30;68.30
67529;DHT22;54366;51.980;5.856;2023-01-01T08:54:14;13.30;68.40
67529;DHT22;54366;51.980;5.856;2023-01-01T08:56:40;13.30;68.50
67529;DHT22;54366;51.980;5.856;2023-01-01T08:59:07;13.30;68.60
67529;DHT22;54366;51.980;5.856;2023-01-01T09:01:33;13.30;68.60
67529;DHT22;54366;51.980;5.856;2023-01-01T09:03:59;13.30;68.70
67529;DHT22;54366;51.980;5.856;2023-01-01T09:06:26;13.20;68.80
67529;DHT22;54366;51.980;5.856;2023-01-01T09:08:52;13.30;69.00
67529;DHT22;54366;51.980;5.856;2023-01-01T09:11:27;13.30;69.20
67529;DHT22;54366;51.980;5.856;2023-01-01T09:13:54;13.30;69.30
67529;DHT22;54366;51.980;5.856;2023-01-01T09:16:21;13.30;69.40
67529;DHT22;54366;51.980;5.856;2023-01-01T09:18:48;13.20;69.50
67529;DHT22;54366;51.980;5.856;2023-01-01T09:21:14;13.20;69.80
67529;DHT22;54366;51.980;5.856;2023-01-01T09:23:41;13.30;70.10
67529;DHT22;54366;51.980;5.856;2023-01-01T09:26:08;13.30;70.20
67529;DHT22;54366;51.980;5.856;2023-01-01T09:28:35;13.20;70.20
67529;DHT22;54366;51.980;5.856;2023-01-01T09:31:03;13.30;70.50
67529;DHT22;54366;51.980;5.856;2023-01-01T09:33:32;13.30;70.70
67529;DHT22;54366;51.980;5.856;2023-01-01T09:36:34;13.30;71.40
67529;DHT22;54366;51.980;5.856;2023-01-01T09:39:01;13.30;71.00
67529;DHT22;54366;51.980;5.856;2023-01-01T09:42:04;13.30;71.10
67529;DHT22;54366;51.980;5.856;2023-01-01T09:44:59;13.30;71.30
67529;DHT22;54366;51.980;5.856;2023-01-01T09:47:33;13.20;71.60
67529;DHT22;54366;51.980;5.856;2023-01-01T09:50:10;13.20;71.50
67529;DHT22;54366;51.980;5.856;2023-01-01T09:52:48;13.20;71.50
67529;DHT22;54366;51.980;5.856;2023-01-01T09:55:25;13.20;72.10
67529;DHT22;54366;51.980;5.856;2023-01-01T09:57:59;13.30;72.10
67529;DHT22;54366;51.980;5.856;2023-01-01T10:00:28;13.30;72.10
67529;DHT22;54366;51.980;5.856;2023-01-01T10:03:17;13.30;72.00
67529;DHT22;54366;51.980;5.856;2023-01-01T10:05:58;13.30;72.00
67529;DHT22;54366;51.980;5.856;2023-01-01T10:11:25;13.40;72.60
67529;DHT22;54366;51.980;5.856;2023-01-01T10:13:58;13.40;73.40
67529;DHT22;54366;51.980;5.856;2023-01-01T10:16:32;13.30;73.00
67529;DHT22;54366;51.980;5.856;2023-01-01T10:20:17;13.40;73.10
67529;DHT22;54366;51.980;5.856;2023-01-01T10:22:28;13.40;73.40
67529;DHT22;54366;51.980;5.856;2023-01-01T10:25:19;13.40;73.60
67529;DHT22;54366;51.980;5.856;2023-01-01T10:30:39;13.40;74.70
67529;DHT22;54366;51.980;5.856;2023-01-01T10:33:11;13.30;74.90
67529;DHT22;54366;51.980;5.856;2023-01-01T10:35:43;13.30;75.40
67529;DHT22;54366;51.980;5.856;2023-01-01T10:38:22;13.30;75.60
67529;DHT22;54366;51.980;5.856;2023-01-01T10:40:51;13.30;75.80
67529;DHT22;54366;51.980;5.856;2023-01-01T10:43:18;13.30;75.70
67529;DHT22;54366;51.980;5.856;2023-01-01T10:45:54;13.30;75.30
67529;DHT22;54366;51.980;5.856;2023-01-01T10:48:25;13.20;75.50
67529;DHT22;54366;51.980;5.856;2023-01-01T10:51:05;13.30;75.70
67529;DHT22;54366;51.980;5.856;2023-01-01T10:53:40;13.30;75.70
67529;DHT22;54366;51.980;5.856;2023-01-01T10:56:11;13.20;75.90
67529;DHT22;54366;51.980;5.856;2023-01-01T10:58:51;13.20;76.00
67529;DHT22;54366;51.980;5.856;2023-01-01T11:01:25;13.20;76.20
67529;DHT22;54366;51.980;5.856;2023-01-01T11:04:19;13.20;76.20
67529;DHT22;54366;51.980;5.856;2023-01-01T11:06:46;13.10;76.30
67529;DHT22;54366;51.980;5.856;2023-01-01T11:09:27;13.10;76.30
67529;DHT22;54366;51.980;5.856;2023-01-01T11:11:59;13.10;76.50
67529;DHT22;54366;51.980;5.856;2023-01-01T11:14:49;13.10;76.50
67529;DHT22;54366;51.980;5.856;2023-01-01T11:17:20;13.10;76.70
67529;DHT22;54366;51.980;5.856;2023-01-01T11:19:48;13.10;77.10
67529;DHT22;54366;51.980;5.856;2023-01-01T11:22:38;13.10;77.10
67529;DHT22;54366;51.980;5.856;2023-01-01T11:25:37;13.10;77.20
67529;DHT22;54366;51.980;5.856;2023-01-01T11:28:18;13.10;77.10
67529;DHT22;54366;51.980;5.856;2023-01-01T11:31:16;13.10;77.30
67529;DHT22;54366;51.980;5.856;2023-01-01T11:33:54;13.10;77.30
67529;DHT22;54366;51.980;5.856;2023-01-01T11:36:30;13.10;77.10
67529;DHT22;54366;51.980;5.856;2023-01-01T11:39:25;13.20;77.10
67529;DHT22;54366;51.980;5.856;2023-01-01T11:41:54;13.20;77.20
67529;DHT22;54366;51.980;5.856;2023-01-01T11:44:42;13.20;77.10
67529;DHT22;54366;51.980;5.856;2023-01-01T11:47:31;13.30;77.20
67529;DHT22;54366;51.980;5.856;2023-01-01T11:50:25;13.40;77.30
67529;DHT22;54366;51.980;5.856;2023-01-01T11:52:53;13.30;77.20
67529;DHT22;54366;51.980;5.856;2023-01-01T11:55:36;13.40;77.30
67529;DHT22;54366;51.980;5.856;2023-01-01T11:58:40;13.40;77.80
67529;DHT22;54366;51.980;5.856;2023-01-01T12:01:45;13.40;77.90
67529;DHT22;54366;51.980;5.856;2023-01-01T12:04:37;13.50;77.90
67529;DHT22;54366;51.980;5.856;2023-01-01T12:07:23;13.50;78.10
67529;DHT22;54366;51.980;5.856;2023-01-01T12:10:03;13.50;77.80
67529;DHT22;54366;51.980;5.856;2023-01-01T12:13:19;13.50;78.00
67529;DHT22;54366;51.980;5.856;2023-01-01T12:15:38;13.50;78.90
67529;DHT22;54366;51.980;5.856;2023-01-01T12:21:31;13.60;78.50
67529;DHT22;54366;51.980;5.856;2023-01-01T12:23:59;13.60;78.60
67529;DHT22;54366;51.980;5.856;2023-01-01T12:29:51;13.60;78.80
67529;DHT22;54366;51.980;5.856;2023-01-01T12:32:26;13.60;78.40
67529;DHT22;54366;51.980;5.856;2023-01-01T12:40:33;13.70;78.40
67529;DHT22;54366;51.980;5.856;2023-01-01T12:41:51;13.80;78.50
67529;DHT22;54366;51.980;5.856;2023-01-01T12:50:33;14.00;77.70
67529;DHT22;54366;51.980;5.856;2023-01-01T12:56:32;14.10;77.20
67529;DHT22;54366;51.980;5.856;2023-01-01T12:59:25;14.20;77.00
67529;DHT22;54366;51.980;5.856;2023-01-01T13:01:57;14.20;76.80
67529;DHT22;54366;51.980;5.856;2023-01-01T13:04:26;14.20;76.60
67529;DHT22;54366;51.980;5.856;2023-01-01T13:06:56;14.20;76.60
67529;DHT22;54366;51.980;5.856;2023-01-01T13:09:33;14.20;76.40
67529;DHT22;54366;51.980;5.856;2023-01-01T13:12:13;14.30;76.30
67529;DHT22;54366;51.980;5.856;2023-01-01T13:14:45;14.20;76.50
67529;DHT22;54366;51.980;5.856;2023-01-01T13:17:22;14.20;75.90
67529;DHT22;54366;51.980;5.856;2023-01-01T13:22:42;14.20;75.70
67529;DHT22;54366;51.980;5.856;2023-01-01T13:25:20;14.20;75.40
67529;DHT22;54366;51.980;5.856;2023-01-01T13:28:16;14.20;75.30
67529;DHT22;54366;51.980;5.856;2023-01-01T13:30:46;14.20;75.10
67529;DHT22;54366;51.980;5.856;2023-01-01T13:33:24;14.20;75.00
67529;DHT22;54366;51.980;5.856;2023-01-01T13:38:52;14.20;74.80
67529;DHT22;54366;51.980;5.856;2023-01-01T13:41:29;14.10;74.80
67529;DHT22;54366;51.980;5.856;2023-01-01T13:44:17;14.20;74.80
67529;DHT22;54366;51.980;5.856;2023-01-01T13:46:59;14.10;74.80
67529;DHT22;54366;51.980;5.856;2023-01-01T13:49:54;14.10;74.90
67529;DHT22;54366;51.980;5.856;2023-01-01T13:52:57;14.10;74.90
67529;DHT22;54366;51.980;5.856;2023-01-01T14:02:32;14.10;75.00
67529;DHT22;54366;51.980;5.856;2023-01-01T14:05:12;14.10;75.00
67529;DHT22;54366;51.980;5.856;2023-01-01T14:07:50;14.10;75.00
67529;DHT22;54366;51.980;5.856;2023-01-01T14:10:29;14.10;74.90
67529;DHT22;54366;51.980;5.856;2023-01-01T14:15:36;14.10;75.00
67529;DHT22;54366;51.980;5.856;2023-01-01T14:18:10;14.10;75.00
67529;DHT22;54366;51.980;5.856;2023-01-01T14:20:47;14.10;74.90
67529;DHT22;54366;51.980;5.856;2023-01-01T14:23:35;14.10;74.90
67529;DHT22;54366;51.980;5.856;2023-01-01T14:26:08;14.10;74.90
67529;DHT22;54366;51.980;5.856;2023-01-01T14:28:35;14.10;74.90
67529;DHT22;54366;51.980;5.856;2023-01-01T14:31:12;14.10;74.90
67529;DHT22;54366;51.980;5.856;2023-01-01T14:33:40;14.00;74.80
67529;DHT22;54366;51.980;5.856;2023-01-01T14:36:25;14.00;74.80
67529;DHT22;54366;51.980;5.856;2023-01-01T14:38:54;14.00;74.90
67529;DHT22;54366;51.980;5.856;2023-01-01T14:44:20;13.90;75.00
67529;DHT22;54366;51.980;5.856;2023-01-01T14:46:49;13.90;75.00
67529;DHT22;54366;51.980;5.856;2023-01-01T14:49:28;14.00;75.10
67529;DHT22;54366;51.980;5.856;2023-01-01T14:51:59;13.90;74.90
67529;DHT22;54366;51.980;5.856;2023-01-01T14:54:37;13.90;75.00
67529;DHT22;54366;51.980;5.856;2023-01-01T14:57:18;13.90;75.00
67529;DHT22;54366;51.980;5.856;2023-01-01T14:59:50;13.90;75.00
67529;DHT22;54366;51.980;5.856;2023-01-01T15:02:25;13.90;75.50
67529;DHT22;54366;51.980;5.856;2023-01-01T15:04:53;13.90;74.90
67529;DHT22;54366;51.980;5.856;2023-01-01T15:07:25;13.90;74.80
67529;DHT22;54366;51.980;5.856;2023-01-01T15:09:53;13.80;74.80
67529;DHT22;54366;51.980;5.856;2023-01-01T15:12:20;13.80;74.80
67529;DHT22;54366;51.980;5.856;2023-01-01T15:14:48;13.80;74.80
67529;DHT22;54366;51.980;5.856;2023-01-01T15:17:17;13.80;74.70
67529;DHT22;54366;51.980;5.856;2023-01-01T15:19:46;13.80;74.60
67529;DHT22;54366;51.980;5.856;2023-01-01T15:22:30;13.80;74.50
67529;DHT22;54366;51.980;5.856;2023-01-01T15:24:58;13.70;74.40
67529;DHT22;54366;51.980;5.856;2023-01-01T15:27:32;13.70;74.40
67529;DHT22;54366;51.980;5.856;2023-01-01T15:29:59;13.70;74.40
67529;DHT22;54366;51.980;5.856;2023-01-01T15:32:32;13.70;74.40
67529;DHT22;54366;51.980;5.856;2023-01-01T15:35:05;13.70;74.40
67529;DHT22;54366;51.980;5.856;2023-01-01T15:37:56;13.60;74.40
67529;DHT22;54366;51.980;5.856;2023-01-01T15:40:33;13.60;74.90
67529;DHT22;54366;51.980;5.856;2023-01-01T15:43:22;13.60;74.40
67529;DHT22;54366;51.980;5.856;2023-01-01T15:45:56;13.60;74.30
67529;DHT22;54366;51.980;5.856;2023-01-01T15:48:33;13.60;74.40
67529;DHT22;54366;51.980;5.856;2023-01-01T15:51:11;13.60;74.50
67529;DHT22;54366;51.980;5.856;2023-01-01T15:53:46;13.50;74.30
67529;DHT22;54366;51.980;5.856;2023-01-01T15:56:14;13.50;74.20
67529;DHT22;54366;51.980;5.856;2023-01-01T15:58:54;13.60;74.30
67529;DHT22;54366;51.980;5.856;2023-01-01T16:01:32;13.60;74.40
67529;DHT22;54366;51.980;5.856;2023-01-01T16:06:45;13.60;74.50
67529;DHT22;54366;51.980;5.856;2023-01-01T16:09:14;13.50;74.50
67529;DHT22;54366;51.980;5.856;2023-01-01T16:11:41;13.50;74.50
67529;DHT22;54366;51.980;5.856;2023-01-01T16:14:08;13.50;74.60
67529;DHT22;54366;51.980;5.856;2023-01-01T16:16:35;13.50;74.60
67529;DHT22;54366;51.980;5.856;2023-01-01T16:19:05;13.50;74.60
67529;DHT22;54366;51.980;5.856;2023-01-01T16:21:35;13.50;74.50
67529;DHT22;54366;51.980;5.856;2023-01-01T16:24:01;13.50;74.40
67529;DHT22;54366;51.980;5.856;2023-01-01T16:26:28;13.50;74.40
67529;DHT22;54366;51.980;5.856;2023-01-01T16:28:54;13.50;74.40
67529;DHT22;54366;51.980;5.856;2023-01-01T16:31:24;13.50;74.40
67529;DHT22;54366;51.980;5.856;2023-01-01T16:33:56;13.50;74.40
67529;DHT22;54366;51.980;5.856;2023-01-01T16:36:23;13.50;74.20
67529;DHT22;54366;51.980;5.856;2023-01-01T16:38:52;13.50;74.40
67529;DHT22;54366;51.980;5.856;2023-01-01T16:41:18;13.50;74.40
67529;DHT22;54366;51.980;5.856;2023-01-01T16:43:46;13.50;74.50
67529;DHT22;54366;51.980;5.856;2023-01-01T16:46:13;13.40;74.60
67529;DHT22;54366;51.980;5.856;2023-01-01T16:48:39;13.50;74.70
67529;DHT22;54366;51.980;5.856;2023-01-01T16:51:08;13.50;74.80
67529;DHT22;54366;51.980;5.856;2023-01-01T16:53:39;13.50;75.00
67529;DHT22;54366;51.980;5.856;2023-01-01T16:56:05;13.50;75.20
67529;DHT22;54366;51.980;5.856;2023-01-01T16:58:34;13.50;75.30
67529;DHT22;54366;51.980;5.856;2023-01-01T17:01:01;13.50;75.50